createdAt,value
2023-05-19T00:00:37.383Z,100.00
2023-05-19T00:01:43.775Z,100.00
2023-05-19T00:02:46.415Z,100.00
2023-05-19T00:03:52.599Z,100.00
2023-05-19T00:04:55.109Z,100.00
2023-05-19T00:05:58.986Z,100.00
2023-05-19T00:07:03.433Z,100.00
2023-05-19T00:08:06.022Z,100.00
2023-05-19T00:09:09.978Z,100.00
2023-05-19T00:10:12.668Z,100.00
2023-05-19T00:11:15.119Z,100.00
2023-05-19T00:12:17.579Z,100.00
2023-05-19T00:13:20.310Z,100.00
2023-05-19T00:14:22.536Z,100.00
2023-05-19T00:15:25.003Z,100.00
2023-05-19T00:16:29.359Z,100.00
2023-05-19T00:17:34.350Z,100.00
2023-05-19T00:18:36.566Z,100.00
2023-05-19T00:19:39.470Z,100.00
2023-05-19T00:20:41.623Z,100.00
2023-05-19T00:21:45.036Z,100.00
2023-05-19T00:22:47.207Z,100.00
2023-05-19T00:23:49.558Z,100.00
2023-05-19T00:24:51.789Z,100.00
2023-05-19T00:25:54.086Z,100.00
2023-05-19T00:26:56.277Z,100.00
2023-05-19T00:27:59.263Z,100.00
2023-05-19T00:29:01.678Z,100.00
2023-05-19T00:30:04.393Z,100.00
2023-05-19T00:31:06.869Z,100.00
2023-05-19T00:32:09.253Z,100.00
2023-05-19T00:33:11.626Z,100.00
2023-05-19T00:34:13.885Z,100.00
2023-05-19T00:35:16.515Z,100.00
2023-05-19T00:36:18.769Z,100.00
2023-05-19T00:37:21.070Z,100.00
2023-05-19T00:38:23.289Z,100.00
2023-05-19T00:39:25.451Z,100.00
2023-05-19T00:40:31.016Z,100.00
2023-05-19T00:41:33.444Z,100.00
2023-05-19T00:42:35.995Z,100.00
2023-05-19T00:43:38.199Z,100.00
2023-05-19T00:44:41.695Z,100.00
2023-05-19T00:45:44.490Z,100.00
2023-05-19T00:46:46.814Z,100.00
2023-05-19T00:47:49.626Z,100.00
2023-05-19T00:48:51.841Z,100.00
2023-05-19T00:49:54.106Z,100.00
2023-05-19T00:51:02.389Z,100.00
2023-05-19T00:52:06.661Z,100.00
2023-05-19T00:53:09.316Z,100.00
2023-05-19T00:54:11.516Z,100.00
2023-05-19T00:55:14.627Z,100.00
2023-05-19T00:56:18.333Z,100.00
2023-05-19T00:57:21.044Z,100.00
2023-05-19T00:58:25.681Z,100.00
2023-05-19T00:59:27.981Z,100.00
2023-05-19T01:00:30.965Z,100.00
2023-05-19T01:01:33.560Z,100.00
2023-05-19T01:02:38.229Z,100.00
2023-05-19T01:03:42.903Z,100.00
2023-05-19T01:04:45.369Z,100.00
2023-05-19T01:05:53.634Z,100.00
2023-05-19T01:06:56.678Z,100.00
2023-05-19T01:07:58.993Z,100.00
2023-05-19T01:09:01.237Z,100.00
2023-05-19T01:10:04.292Z,100.00
2023-05-19T01:11:07.712Z,100.00
2023-05-19T01:12:10.220Z,100.00
2023-05-19T01:13:12.618Z,100.00
2023-05-19T01:14:15.408Z,100.00
2023-05-19T01:15:18.051Z,100.00
2023-05-19T01:16:32.276Z,100.00
2023-05-19T01:17:45.557Z,100.00
2023-05-19T01:19:05.863Z,100.00
2023-05-19T01:20:18.407Z,100.00
2023-05-19T01:21:51.874Z,100.00
2023-05-19T01:23:11.049Z,100.00
2023-05-19T01:24:32.345Z,100.00
2023-05-19T01:25:46.710Z,100.00
2023-05-19T01:27:39.945Z,100.00
2023-05-19T01:29:04.238Z,100.00
2023-05-19T01:30:23.330Z,100.00
2023-05-19T01:31:26.618Z,100.00
2023-05-19T01:32:31.383Z,100.00
2023-05-19T01:33:34.565Z,100.00
2023-05-19T01:34:42.612Z,100.00
2023-05-19T01:35:45.872Z,100.00
2023-05-19T01:36:49.898Z,100.00
2023-05-19T01:37:56.394Z,100.00
2023-05-19T01:38:59.878Z,100.00
2023-05-19T01:40:02.534Z,100.00
2023-05-19T01:41:06.981Z,100.00
2023-05-19T01:42:11.747Z,100.00
2023-05-19T01:43:18.721Z,100.00
2023-05-19T01:44:22.394Z,100.00
2023-05-19T01:45:27.710Z,100.00
2023-05-19T01:46:29.998Z,100.00
2023-05-19T01:47:35.203Z,100.00
2023-05-19T01:48:38.233Z,100.00
2023-05-19T01:49:40.454Z,100.00
2023-05-19T01:50:42.811Z,100.00
2023-05-19T01:51:45.307Z,100.00
2023-05-19T01:52:47.585Z,100.00
2023-05-19T01:53:49.826Z,100.00
2023-05-19T01:54:52.022Z,100.00
2023-05-19T01:55:56.488Z,100.00
2023-05-19T01:57:12.761Z,100.00
2023-05-19T01:58:21.295Z,100.00
2023-05-19T01:59:44.627Z,100.00
2023-05-19T02:00:49.826Z,100.00
2023-05-19T02:01:54.373Z,100.00
2023-05-19T02:03:12.770Z,100.00
2023-05-19T02:04:29.228Z,100.00
2023-05-19T02:05:59.194Z,100.00
2023-05-19T02:07:35.882Z,100.00
2023-05-19T02:08:47.687Z,100.00
2023-05-19T02:10:05.394Z,100.00
2023-05-19T02:11:27.468Z,100.00
2023-05-19T02:12:34.472Z,100.00
2023-05-19T02:13:42.113Z,100.00
2023-05-19T02:14:59.830Z,100.00
2023-05-19T02:16:05.336Z,100.00
2023-05-19T02:17:09.109Z,100.00
2023-05-19T02:18:12.246Z,100.00
2023-05-19T02:19:25.627Z,100.00
2023-05-19T02:20:31.591Z,100.00
2023-05-19T02:21:33.951Z,100.00
2023-05-19T02:22:36.516Z,100.00
2023-05-19T02:23:42.008Z,100.00
2023-05-19T02:24:46.487Z,100.00
2023-05-19T02:25:48.924Z,100.00
2023-05-19T02:26:52.497Z,100.00
2023-05-19T02:27:55.230Z,100.00
2023-05-19T02:28:57.391Z,100.00
2023-05-19T02:30:00.181Z,100.00
2023-05-19T02:31:03.449Z,100.00
2023-05-19T02:32:06.529Z,100.00
2023-05-19T02:33:08.777Z,100.00
2023-05-19T02:34:11.272Z,100.00
2023-05-19T02:35:14.210Z,100.00
2023-05-19T02:36:16.457Z,100.00
2023-05-19T02:37:18.691Z,100.00
2023-05-19T02:38:21.435Z,100.00
2023-05-19T02:39:23.677Z,100.00
2023-05-19T02:40:25.966Z,100.00
2023-05-19T02:41:28.623Z,100.00
2023-05-19T02:42:31.370Z,100.00
2023-05-19T02:43:33.557Z,100.00
2023-05-19T02:44:36.123Z,100.00
2023-05-19T02:45:38.312Z,100.00
2023-05-19T02:46:40.606Z,100.00
2023-05-19T02:47:43.180Z,100.00
2023-05-19T02:48:45.477Z,100.00
2023-05-19T02:49:47.696Z,100.00
2023-05-19T02:50:51.008Z,100.00
2023-05-19T02:51:53.319Z,100.00
2023-05-19T02:52:55.527Z,100.00
2023-05-19T02:53:57.810Z,100.00
2023-05-19T02:55:00.192Z,100.00
2023-05-19T02:56:02.420Z,100.00
2023-05-19T02:57:04.890Z,100.00
2023-05-19T02:58:07.439Z,100.00
2023-05-19T02:59:09.669Z,100.00
2023-05-19T03:00:12.622Z,100.00
2023-05-19T03:01:15.190Z,100.00
2023-05-19T03:02:17.442Z,100.00
2023-05-19T03:03:19.810Z,100.00
2023-05-19T03:04:22.467Z,100.00
2023-05-19T03:05:24.677Z,100.00
2023-05-19T03:06:26.879Z,100.00
2023-05-19T03:07:29.195Z,100.00
2023-05-19T03:08:31.487Z,100.00
2023-05-19T03:09:33.688Z,100.00
2023-05-19T03:10:36.343Z,100.00
2023-05-19T03:11:38.545Z,100.00
2023-05-19T03:12:40.728Z,100.00
2023-05-19T03:13:42.959Z,100.00
2023-05-19T03:14:45.116Z,100.00
2023-05-19T03:15:47.532Z,100.00
2023-05-19T03:16:49.903Z,100.00
2023-05-19T03:17:52.240Z,100.00
2023-05-19T03:18:55.569Z,100.00
2023-05-19T03:19:57.762Z,100.00
2023-05-19T03:21:00.172Z,100.00
2023-05-19T03:22:02.402Z,100.00
2023-05-19T03:23:04.618Z,100.00
2023-05-19T03:24:07.149Z,100.00
2023-05-19T03:25:10.304Z,100.00
2023-05-19T03:26:12.534Z,100.00
2023-05-19T03:27:14.744Z,100.00
2023-05-19T03:28:17.242Z,100.00
2023-05-19T03:29:19.513Z,100.00
2023-05-19T03:30:22.195Z,100.00
2023-05-19T03:31:47.218Z,100.00
2023-05-19T03:32:52.171Z,100.00
2023-05-19T03:33:54.668Z,100.00
2023-05-19T03:34:57.707Z,100.00
2023-05-19T03:36:00.553Z,100.00
2023-05-19T03:37:05.608Z,100.00
2023-05-19T03:38:08.811Z,100.00
2023-05-19T03:39:11.155Z,100.00
2023-05-19T03:40:13.729Z,100.00
2023-05-19T03:41:18.155Z,100.00
2023-05-19T03:42:20.389Z,100.00
2023-05-19T03:43:22.612Z,100.00
2023-05-19T03:44:30.715Z,100.00
2023-05-19T03:45:34.559Z,100.00
2023-05-19T03:46:47.048Z,100.00
2023-05-19T03:47:52.358Z,100.00
2023-05-19T03:49:26.510Z,100.00
2023-05-19T03:50:48.579Z,100.00
2023-05-19T03:51:55.898Z,100.00
2023-05-19T03:53:22.003Z,100.00
2023-05-19T03:54:24.241Z,100.00
2023-05-19T03:55:29.855Z,100.00
2023-05-19T03:56:32.910Z,100.00
2023-05-19T03:57:35.442Z,100.00
2023-05-19T03:58:40.801Z,100.00
2023-05-19T03:59:43.928Z,100.00
2023-05-19T04:00:46.110Z,100.00
2023-05-19T04:01:49.742Z,100.00
2023-05-19T04:02:52.071Z,100.00
2023-05-19T04:03:54.525Z,100.00
2023-05-19T04:04:57.587Z,100.00
2023-05-19T04:05:59.962Z,100.00
2023-05-19T04:07:02.429Z,100.00
2023-05-19T04:08:04.762Z,100.00
2023-05-19T04:09:13.029Z,100.00
2023-05-19T04:10:15.487Z,100.00
2023-05-19T04:11:19.940Z,100.00
2023-05-19T04:12:22.151Z,100.00
2023-05-19T04:13:24.357Z,100.00
2023-05-19T04:14:27.250Z,100.00
2023-05-19T04:15:29.493Z,100.00
2023-05-19T04:16:31.905Z,100.00
2023-05-19T04:17:34.258Z,100.00
2023-05-19T04:18:36.624Z,100.00
2023-05-19T04:19:40.239Z,100.00
2023-05-19T04:20:42.469Z,100.00
2023-05-19T04:21:44.719Z,100.00
2023-05-19T04:22:46.885Z,100.00
2023-05-19T04:23:49.151Z,100.00
2023-05-19T04:24:52.987Z,100.00
2023-05-19T04:25:57.048Z,100.00
2023-05-19T04:27:02.487Z,100.00
2023-05-19T04:28:04.740Z,100.00
2023-05-19T04:29:07.038Z,100.00
2023-05-19T04:30:10.145Z,100.00
2023-05-19T04:31:12.912Z,100.00
2023-05-19T04:32:17.664Z,100.00
2023-05-19T04:33:20.181Z,100.00
2023-05-19T04:34:22.705Z,100.00
2023-05-19T04:35:25.104Z,100.00
2023-05-19T04:36:27.598Z,100.00
2023-05-19T04:37:30.646Z,100.00
2023-05-19T04:38:33.712Z,100.00
2023-05-19T04:39:39.858Z,100.00
2023-05-19T04:40:43.156Z,100.00
2023-05-19T04:41:46.289Z,100.00
2023-05-19T04:42:49.778Z,100.00
2023-05-19T04:43:51.968Z,100.00
2023-05-19T04:44:55.480Z,100.00
2023-05-19T04:45:59.311Z,100.00
2023-05-19T04:47:01.818Z,100.00
2023-05-19T04:48:04.436Z,100.00
2023-05-19T04:49:06.662Z,100.00
2023-05-19T04:50:11.108Z,100.00
2023-05-19T04:51:14.221Z,100.00
2023-05-19T04:52:21.734Z,100.00
2023-05-19T04:53:25.731Z,100.00
2023-05-19T04:54:28.602Z,100.00
2023-05-19T04:55:31.516Z,100.00
2023-05-19T04:56:33.914Z,100.00
2023-05-19T04:57:37.546Z,100.00
2023-05-19T04:58:41.838Z,100.00
2023-05-19T04:59:44.586Z,100.00
2023-05-19T05:00:46.809Z,100.00
2023-05-19T05:01:49.038Z,100.00
2023-05-19T05:02:52.347Z,100.00
2023-05-19T05:03:59.038Z,100.00
2023-05-19T05:05:01.457Z,100.00
2023-05-19T05:06:04.535Z,100.00
2023-05-19T05:07:06.885Z,100.00
2023-05-19T05:08:10.943Z,100.00
2023-05-19T05:09:17.841Z,100.00
2023-05-19T05:10:20.195Z,100.00
2023-05-19T05:11:23.044Z,100.00
2023-05-19T05:12:25.626Z,100.00
2023-05-19T05:13:28.145Z,100.00
2023-05-19T05:14:30.642Z,100.00
2023-05-19T05:15:33.048Z,100.00
2023-05-19T05:16:37.443Z,100.00
2023-05-19T05:17:41.072Z,100.00
2023-05-19T05:18:44.978Z,100.00
2023-05-19T05:19:48.506Z,100.00
2023-05-19T05:20:50.957Z,100.00
2023-05-19T05:21:53.526Z,100.00
2023-05-19T05:22:55.932Z,100.00
2023-05-19T05:23:58.754Z,100.00
2023-05-19T05:25:04.552Z,100.00
2023-05-19T05:26:15.425Z,100.00
2023-05-19T05:27:17.862Z,100.00
2023-05-19T05:28:20.760Z,100.00
2023-05-19T05:29:23.144Z,100.00
2023-05-19T05:30:25.577Z,100.00
2023-05-19T05:31:28.945Z,100.00
2023-05-19T05:32:31.432Z,100.00
2023-05-19T05:33:35.509Z,100.00
2023-05-19T05:34:42.276Z,100.00
2023-05-19T05:35:44.754Z,100.00
2023-05-19T05:36:49.043Z,100.00
2023-05-19T05:37:51.347Z,100.00
2023-05-19T05:38:53.692Z,100.00
2023-05-19T05:39:56.005Z,100.00
2023-05-19T05:40:58.210Z,100.00
2023-05-19T05:42:01.019Z,100.00
2023-05-19T05:43:03.313Z,100.00
2023-05-19T05:44:08.496Z,100.00
2023-05-19T05:45:11.164Z,100.00
2023-05-19T05:46:13.468Z,100.00
2023-05-19T05:47:16.715Z,100.00
2023-05-19T05:48:20.726Z,100.00
2023-05-19T05:49:23.253Z,100.00
2023-05-19T05:50:25.929Z,100.00
2023-05-19T05:51:29.438Z,100.00
2023-05-19T05:52:32.968Z,100.00
2023-05-19T05:53:42.981Z,100.00
2023-05-19T05:54:46.385Z,100.00
2023-05-19T05:55:51.686Z,100.00
2023-05-19T05:56:54.324Z,100.00
2023-05-19T05:57:57.011Z,100.00
2023-05-19T05:58:59.784Z,100.00
2023-05-19T06:00:02.367Z,100.00
2023-05-19T06:01:10.354Z,100.00
2023-05-19T06:02:12.726Z,100.00
2023-05-19T06:03:16.983Z,100.00
2023-05-19T06:04:21.208Z,100.00
2023-05-19T06:05:24.745Z,100.00
2023-05-19T06:06:27.104Z,100.00
2023-05-19T06:07:30.398Z,100.00
2023-05-19T06:08:32.897Z,100.00
2023-05-19T06:09:35.557Z,100.00
2023-05-19T06:10:41.689Z,100.00
2023-05-19T06:11:45.160Z,100.00
2023-05-19T06:12:48.146Z,100.00
2023-05-19T06:13:51.183Z,100.00
2023-05-19T06:15:19.330Z,100.00
2023-05-19T06:16:26.086Z,100.00
2023-05-19T06:17:29.065Z,100.00
2023-05-19T06:18:33.531Z,100.00
2023-05-19T06:19:36.288Z,100.00
2023-05-19T06:20:38.621Z,100.00
2023-05-19T06:21:42.938Z,100.00
2023-05-19T06:22:45.522Z,100.00
2023-05-19T06:23:49.235Z,100.00
2023-05-19T06:24:53.358Z,100.00
2023-05-19T06:25:56.188Z,100.00
2023-05-19T06:26:58.577Z,100.00
2023-05-19T06:28:00.793Z,100.00
2023-05-19T06:29:03.671Z,100.00
2023-05-19T06:30:08.712Z,100.00
2023-05-19T06:31:19.258Z,100.00
2023-05-19T06:32:26.749Z,100.00
2023-05-19T06:33:29.411Z,100.00
2023-05-19T06:34:32.271Z,100.00
2023-05-19T06:35:34.575Z,100.00
2023-05-19T06:36:36.979Z,100.00
2023-05-19T06:37:39.334Z,100.00
2023-05-19T06:38:41.609Z,100.00
2023-05-19T06:39:44.165Z,100.00
2023-05-19T06:40:46.500Z,100.00
2023-05-19T06:41:49.332Z,100.00
2023-05-19T06:43:11.436Z,100.00
2023-05-19T06:44:28.911Z,100.00
2023-05-19T06:45:31.089Z,100.00
2023-05-19T06:46:35.786Z,100.00
2023-05-19T06:47:41.640Z,100.00
2023-05-19T06:48:44.308Z,100.00
2023-05-19T06:49:50.785Z,100.00
2023-05-19T06:50:53.254Z,100.00
2023-05-19T06:51:55.531Z,100.00
2023-05-19T06:52:58.429Z,100.00
2023-05-19T06:54:00.941Z,100.00
2023-05-19T06:55:04.334Z,100.00
2023-05-19T06:56:08.054Z,99.23
2023-05-19T06:57:12.417Z,93.63
2023-05-19T06:58:14.617Z,94.27
2023-05-19T06:59:16.849Z,90.39
2023-05-19T07:00:22.085Z,94.40
2023-05-19T07:01:28.050Z,88.50
2023-05-19T07:02:34.565Z,81.29
2023-05-19T07:03:37.379Z,73.80
2023-05-19T07:04:39.992Z,73.28
2023-05-19T07:05:42.829Z,71.75
2023-05-19T07:06:45.882Z,70.15
2023-05-19T07:07:48.625Z,67.82
2023-05-19T07:08:55.519Z,69.89
2023-05-19T07:09:58.301Z,72.41
2023-05-19T07:11:01.640Z,78.39
2023-05-19T07:12:04.476Z,80.19
2023-05-19T07:13:06.756Z,81.96
2023-05-19T07:14:09.745Z,75.92
2023-05-19T07:15:11.998Z,76.78
2023-05-19T07:16:14.337Z,70.70
2023-05-19T07:17:16.815Z,69.81
2023-05-19T07:18:20.927Z,65.63
2023-05-19T07:19:24.118Z,61.88
2023-05-19T07:20:27.192Z,64.37
2023-05-19T07:21:30.129Z,62.19
2023-05-19T07:22:35.244Z,62.66
2023-05-19T07:23:37.495Z,63.30
2023-05-19T07:24:39.719Z,64.35
2023-05-19T07:25:41.993Z,64.43
2023-05-19T07:26:44.250Z,60.28
2023-05-19T07:27:46.499Z,59.56
2023-05-19T07:28:48.679Z,58.06
2023-05-19T07:29:50.905Z,57.92
2023-05-19T07:30:53.615Z,55.60
2023-05-19T07:31:57.983Z,52.95
2023-05-19T07:33:00.585Z,55.46
2023-05-19T07:34:03.139Z,59.13
2023-05-19T07:35:06.313Z,59.57
2023-05-19T07:36:09.089Z,62.61
2023-05-19T07:37:11.353Z,63.34
2023-05-19T07:38:13.917Z,64.70
2023-05-19T07:39:16.212Z,66.39
2023-05-19T07:40:18.962Z,64.60
2023-05-19T07:41:21.827Z,62.73
2023-05-19T07:42:24.093Z,61.48
2023-05-19T07:43:26.334Z,59.60
2023-05-19T07:44:31.184Z,59.88
2023-05-19T07:45:33.467Z,57.38
2023-05-19T07:46:36.486Z,56.40
2023-05-19T07:47:38.938Z,56.72
2023-05-19T07:48:41.099Z,56.74
2023-05-19T07:49:43.319Z,54.74
2023-05-19T07:50:45.490Z,56.65
2023-05-19T07:51:47.682Z,54.27
2023-05-19T07:52:49.884Z,55.78
2023-05-19T07:53:52.940Z,55.00
2023-05-19T07:54:55.113Z,53.66
2023-05-19T07:55:58.719Z,49.62
2023-05-19T07:57:01.068Z,51.03
2023-05-19T07:58:03.286Z,49.10
2023-05-19T07:59:05.792Z,48.93
2023-05-19T08:00:11.560Z,49.14
2023-05-19T08:01:17.136Z,50.11
2023-05-19T08:02:19.473Z,52.23
2023-05-19T08:03:23.478Z,52.22
2023-05-19T08:04:25.914Z,51.47
2023-05-19T08:05:28.140Z,53.54
2023-05-19T08:06:30.308Z,52.39
2023-05-19T08:07:33.042Z,51.66
2023-05-19T08:08:35.284Z,50.28
2023-05-19T08:09:37.467Z,50.61
2023-05-19T08:10:39.697Z,48.60
2023-05-19T08:11:41.863Z,50.53
2023-05-19T08:12:44.286Z,50.74
2023-05-19T08:13:49.007Z,50.88
2023-05-19T08:14:51.318Z,49.58
2023-05-19T08:15:59.486Z,47.69
2023-05-19T08:17:01.889Z,48.28
2023-05-19T08:18:05.366Z,48.00
2023-05-19T08:19:07.716Z,49.42
2023-05-19T08:20:10.440Z,49.06
2023-05-19T08:21:12.752Z,51.44
2023-05-19T08:22:14.971Z,51.00
2023-05-19T08:23:17.591Z,49.65
2023-05-19T08:24:19.739Z,50.66
2023-05-19T08:25:22.446Z,55.16
2023-05-19T08:26:24.625Z,53.63
2023-05-19T08:27:26.910Z,51.58
2023-05-19T08:28:29.216Z,53.20
2023-05-19T08:29:31.931Z,48.98
2023-05-19T08:30:34.404Z,49.04
2023-05-19T08:31:36.804Z,49.67
2023-05-19T08:32:39.136Z,48.40
2023-05-19T08:33:41.326Z,46.40
2023-05-19T08:34:43.508Z,46.20
2023-05-19T08:35:45.887Z,44.35
2023-05-19T08:36:48.148Z,44.90
2023-05-19T08:37:50.390Z,44.40
2023-05-19T08:38:52.571Z,44.63
2023-05-19T08:39:54.770Z,45.03
2023-05-19T08:40:58.143Z,45.58
2023-05-19T08:42:01.519Z,41.18
2023-05-19T08:43:03.825Z,41.99
2023-05-19T08:44:06.165Z,44.38
2023-05-19T08:45:08.841Z,44.29
2023-05-19T08:46:14.381Z,44.05
2023-05-19T08:47:17.665Z,43.28
2023-05-19T08:48:21.776Z,43.32
2023-05-19T08:49:30.223Z,45.05
2023-05-19T08:50:38.548Z,43.90
2023-05-19T08:51:49.437Z,43.12
2023-05-19T08:53:33.137Z,40.03
2023-05-19T08:54:46.009Z,42.17
2023-05-19T08:56:00.966Z,43.11
2023-05-19T08:57:05.297Z,41.72
2023-05-19T08:58:08.676Z,42.20
2023-05-19T08:59:13.224Z,42.07
2023-05-19T09:00:16.951Z,43.56
2023-05-19T09:01:22.078Z,43.62
2023-05-19T09:02:24.670Z,43.67
2023-05-19T09:03:29.096Z,42.98
2023-05-19T09:04:32.303Z,42.70
2023-05-19T09:05:35.122Z,41.54
2023-05-19T09:06:41.013Z,41.32
2023-05-19T09:07:44.094Z,39.86
2023-05-19T09:08:47.127Z,41.29
2023-05-19T09:09:49.442Z,40.58
2023-05-19T09:10:51.685Z,40.99
2023-05-19T09:11:53.943Z,40.18
2023-05-19T09:12:56.379Z,40.17
2023-05-19T09:13:58.561Z,38.69
2023-05-19T09:15:01.174Z,40.28
2023-05-19T09:16:04.067Z,41.32
2023-05-19T09:17:07.042Z,40.43
2023-05-19T09:18:11.296Z,40.86
2023-05-19T09:19:16.028Z,39.79
2023-05-19T09:20:18.244Z,37.63
2023-05-19T09:21:20.577Z,37.80
2023-05-19T09:22:25.463Z,38.13
2023-05-19T09:23:33.445Z,38.59
2023-05-19T09:24:36.050Z,39.78
2023-05-19T09:25:47.100Z,40.25
2023-05-19T09:26:49.270Z,38.47
2023-05-19T09:27:51.583Z,39.29
2023-05-19T09:28:58.236Z,38.72
2023-05-19T09:30:09.250Z,39.24
2023-05-19T09:31:11.698Z,38.45
2023-05-19T09:32:25.031Z,39.74
2023-05-19T09:33:28.670Z,40.75
2023-05-19T09:34:31.160Z,39.86
2023-05-19T09:35:34.843Z,38.81
2023-05-19T09:36:39.940Z,39.40
2023-05-19T09:37:46.288Z,38.08
2023-05-19T09:38:49.214Z,37.99
2023-05-19T09:39:52.936Z,37.78
2023-05-19T09:40:59.737Z,37.17
2023-05-19T09:42:04.642Z,37.23
2023-05-19T09:43:08.501Z,36.52
2023-05-19T09:44:22.194Z,36.55
2023-05-19T09:45:27.247Z,36.00
2023-05-19T09:46:30.187Z,36.84
2023-05-19T09:47:38.154Z,35.67
2023-05-19T09:48:40.580Z,35.07
2023-05-19T09:49:47.281Z,36.49
2023-05-19T09:50:51.678Z,37.49
2023-05-19T09:51:58.003Z,38.82
2023-05-19T09:53:00.853Z,40.11
2023-05-19T09:54:04.531Z,39.85
2023-05-19T09:55:10.380Z,39.94
2023-05-19T09:56:15.073Z,39.67
2023-05-19T09:57:17.777Z,40.60
2023-05-19T09:58:20.516Z,38.72
2023-05-19T09:59:25.366Z,38.42
2023-05-19T10:00:28.071Z,38.42
2023-05-19T10:01:33.715Z,36.97
2023-05-19T10:02:36.659Z,36.78
2023-05-19T10:03:39.263Z,37.73
2023-05-19T10:04:42.475Z,37.40
2023-05-19T10:05:45.205Z,37.95
2023-05-19T10:06:53.481Z,36.07
2023-05-19T10:07:55.834Z,35.67
2023-05-19T10:08:59.197Z,35.33
2023-05-19T10:10:01.947Z,35.70
2023-05-19T10:11:05.478Z,35.62
2023-05-19T10:12:09.375Z,36.30
2023-05-19T10:13:12.514Z,36.64
2023-05-19T10:14:15.770Z,37.57
2023-05-19T10:15:22.075Z,37.22
2023-05-19T10:16:27.793Z,39.00
2023-05-19T10:17:30.883Z,40.27
2023-05-19T10:18:33.616Z,39.61
2023-05-19T10:19:37.191Z,40.45
2023-05-19T10:20:40.839Z,40.17
2023-05-19T10:21:43.139Z,38.98
2023-05-19T10:22:46.336Z,39.65
2023-05-19T10:23:48.482Z,43.30
2023-05-19T10:24:50.720Z,43.92
2023-05-19T10:25:56.358Z,44.42
2023-05-19T10:27:07.579Z,44.65
2023-05-19T10:28:17.236Z,42.01
2023-05-19T10:29:27.337Z,42.08
2023-05-19T10:30:50.962Z,41.77
2023-05-19T10:31:56.146Z,40.31
2023-05-19T10:33:01.775Z,39.81
2023-05-19T10:34:21.888Z,40.06
2023-05-19T10:36:11.815Z,40.99
2023-05-19T10:37:26.998Z,41.10
2023-05-19T10:38:43.045Z,44.50
2023-05-19T10:39:46.354Z,46.00
2023-05-19T10:41:10.362Z,49.06
2023-05-19T10:42:45.428Z,45.43
2023-05-19T10:44:41.015Z,41.66
2023-05-19T10:45:52.895Z,41.74
2023-05-19T10:46:56.819Z,40.33
2023-05-19T10:47:59.401Z,36.21
2023-05-19T10:49:01.662Z,35.93
2023-05-19T10:50:06.624Z,36.31
2023-05-19T10:51:12.181Z,36.00
2023-05-19T10:52:26.979Z,35.94
2023-05-19T10:53:33.366Z,36.32
2023-05-19T10:54:47.283Z,37.32
2023-05-19T10:55:53.378Z,37.28
2023-05-19T10:56:56.793Z,40.38
2023-05-19T10:57:58.941Z,40.20
2023-05-19T10:59:02.450Z,41.46
2023-05-19T11:00:28.090Z,41.07
2023-05-19T11:01:33.369Z,42.70
2023-05-19T11:02:44.030Z,42.76
2023-05-19T11:03:50.657Z,43.75
2023-05-19T11:04:53.609Z,45.81
2023-05-19T11:06:17.543Z,45.44
2023-05-19T11:07:21.718Z,44.75
2023-05-19T11:08:32.830Z,46.81
2023-05-19T11:09:41.116Z,48.41
2023-05-19T11:10:46.673Z,46.93
2023-05-19T11:11:49.962Z,45.92
2023-05-19T11:12:52.480Z,44.73
2023-05-19T11:13:56.076Z,42.84
2023-05-19T11:14:59.473Z,41.06
2023-05-19T11:16:08.343Z,40.06
2023-05-19T11:17:15.746Z,38.39
2023-05-19T11:18:19.411Z,36.63
2023-05-19T11:19:29.684Z,36.75
2023-05-19T11:20:35.147Z,36.53
2023-05-19T11:21:52.542Z,35.09
2023-05-19T11:23:21.782Z,34.38
2023-05-19T11:24:46.344Z,33.70
2023-05-19T11:25:51.389Z,31.94
2023-05-19T11:26:54.783Z,31.44
2023-05-19T11:27:57.967Z,32.11
2023-05-19T11:29:00.461Z,31.47
2023-05-19T11:30:14.840Z,32.82
2023-05-19T11:31:19.146Z,32.98
2023-05-19T11:32:25.749Z,32.53
2023-05-19T11:33:28.276Z,32.97
2023-05-19T11:34:30.910Z,33.27
2023-05-19T11:35:35.436Z,35.01
2023-05-19T11:36:39.976Z,34.92
2023-05-19T11:37:42.785Z,34.63
2023-05-19T11:38:45.404Z,32.04
2023-05-19T11:39:47.960Z,31.99
2023-05-19T11:40:53.259Z,30.27
2023-05-19T11:41:55.910Z,29.59
2023-05-19T11:42:58.688Z,29.32
2023-05-19T11:44:01.016Z,29.43
2023-05-19T11:45:04.549Z,29.87
2023-05-19T11:46:06.754Z,31.56
2023-05-19T11:47:09.600Z,34.08
2023-05-19T11:48:12.975Z,34.51
2023-05-19T11:49:15.715Z,35.15
2023-05-19T11:50:18.539Z,36.11
2023-05-19T11:51:21.755Z,37.33
2023-05-19T11:52:25.625Z,37.99
2023-05-19T11:53:33.255Z,39.22
2023-05-19T11:54:37.340Z,40.93
2023-05-19T11:55:46.208Z,42.75
2023-05-19T11:56:48.626Z,43.53
2023-05-19T11:59:04.290Z,43.74
2023-05-19T12:00:08.108Z,45.17
2023-05-19T12:01:10.358Z,43.73
2023-05-19T12:02:21.171Z,42.22
2023-05-19T12:03:28.161Z,40.75
2023-05-19T12:04:32.046Z,38.65
2023-05-19T12:05:40.865Z,38.13
2023-05-19T12:06:44.430Z,38.34
2023-05-19T12:07:49.580Z,37.37
2023-05-19T12:08:52.723Z,35.50
2023-05-19T12:09:55.635Z,34.60
2023-05-19T12:10:57.892Z,34.43
2023-05-19T12:12:01.016Z,34.64
2023-05-19T12:13:03.542Z,32.52
2023-05-19T12:14:05.944Z,32.24
2023-05-19T12:15:08.900Z,31.44
2023-05-19T12:16:11.566Z,31.26
2023-05-19T12:17:15.273Z,32.67
2023-05-19T12:18:17.462Z,33.49
2023-05-19T12:19:23.814Z,32.52
2023-05-19T12:20:27.539Z,31.95
2023-05-19T12:21:34.275Z,31.59
2023-05-19T12:22:36.944Z,32.19
2023-05-19T12:23:40.014Z,31.51
2023-05-19T12:24:43.600Z,31.79
2023-05-19T12:25:46.163Z,32.51
2023-05-19T12:26:50.285Z,32.79
2023-05-19T12:27:57.506Z,34.91
2023-05-19T12:29:00.285Z,35.09
2023-05-19T12:30:04.464Z,34.16
2023-05-19T12:31:06.738Z,35.65
2023-05-19T12:32:09.634Z,34.64
2023-05-19T12:33:12.620Z,33.49
2023-05-19T12:34:15.750Z,32.19
2023-05-19T12:35:19.882Z,32.82
2023-05-19T12:36:24.008Z,33.25
2023-05-19T12:37:27.598Z,34.26
2023-05-19T12:38:29.827Z,34.55
2023-05-19T12:39:33.706Z,34.64
2023-05-19T12:40:37.551Z,35.33
2023-05-19T12:41:40.750Z,36.86
2023-05-19T12:42:45.482Z,36.18
2023-05-19T12:43:48.676Z,36.25
2023-05-19T12:44:52.561Z,36.35
2023-05-19T12:45:54.801Z,36.56
2023-05-19T12:46:59.426Z,36.67
2023-05-19T12:48:22.657Z,37.48
2023-05-19T12:49:24.920Z,38.12
2023-05-19T12:50:34.162Z,37.12
2023-05-19T12:51:37.037Z,37.73
2023-05-19T12:52:44.439Z,37.24
2023-05-19T12:53:47.367Z,36.38
2023-05-19T12:55:11.429Z,37.41
2023-05-19T12:56:15.349Z,36.34
2023-05-19T12:57:17.654Z,34.39
2023-05-19T12:58:21.507Z,35.38
2023-05-19T12:59:37.451Z,34.06
2023-05-19T13:00:42.667Z,34.55
2023-05-19T13:01:44.982Z,34.90
2023-05-19T13:03:02.128Z,36.76
2023-05-19T13:04:06.263Z,37.32
2023-05-19T13:05:09.110Z,39.13
2023-05-19T13:06:11.810Z,39.17
2023-05-19T13:07:14.036Z,39.25
2023-05-19T13:08:18.627Z,38.74
2023-05-19T13:09:21.191Z,38.63
2023-05-19T13:10:23.879Z,39.35
2023-05-19T13:11:26.030Z,39.63
2023-05-19T13:12:28.251Z,40.20
2023-05-19T13:13:30.578Z,40.36
2023-05-19T13:14:32.781Z,40.49
2023-05-19T13:15:37.967Z,41.28
2023-05-19T13:16:40.245Z,41.92
2023-05-19T13:17:42.860Z,39.18
2023-05-19T13:18:45.066Z,38.77
2023-05-19T13:19:47.388Z,39.22
2023-05-19T13:20:51.324Z,40.29
2023-05-19T13:21:53.560Z,40.16
2023-05-19T13:22:56.998Z,39.51
2023-05-19T13:23:59.188Z,40.09
2023-05-19T13:25:02.280Z,41.15
2023-05-19T13:26:05.469Z,39.27
2023-05-19T13:27:07.950Z,38.63
2023-05-19T13:28:10.962Z,39.16
2023-05-19T13:29:13.161Z,39.76
2023-05-19T13:30:18.743Z,38.38
2023-05-19T13:31:21.050Z,38.79
2023-05-19T13:32:23.981Z,37.96
2023-05-19T13:33:26.399Z,38.79
2023-05-19T13:34:28.579Z,39.63
2023-05-19T13:35:36.732Z,38.46
2023-05-19T13:36:39.315Z,37.27
2023-05-19T13:37:42.565Z,37.90
2023-05-19T13:38:44.823Z,37.57
2023-05-19T13:39:47.054Z,38.59
2023-05-19T13:40:49.244Z,38.99
2023-05-19T13:41:51.640Z,37.81
2023-05-19T13:42:53.873Z,37.95
2023-05-19T13:43:59.648Z,37.85